sensor_id;sensor_type;location;lat;lon;timestamp;pressure;altitude;pressure_sealevel;temperature
78917;BMP280;68315;48.608;11.436;2023-04-24T00:00:34;96307.31;;;11.62
78917;BMP280;68315;48.608;11.436;2023-04-24T00:02:59;96299.28;;;11.57
78917;BMP280;68315;48.608;11.436;2023-04-24T00:05:28;96292.13;;;11.54
78917;BMP280;68315;48.608;11.436;2023-04-24T00:07:56;96286.63;;;11.54
78917;BMP280;68315;48.608;11.436;2023-04-24T00:10:21;96294.88;;;11.54
78917;BMP280;68315;48.608;11.436;2023-04-24T00:12:47;96292.84;;;11.54
78917;BMP280;68315;48.608;11.436;2023-04-24T00:15:13;96286.97;;;11.58
78917;BMP280;68315;48.608;11.436;2023-04-24T00:17:38;96282.03;;;11.56
78917;BMP280;68315;48.608;11.436;2023-04-24T00:20:04;96282.75;;;11.57
78917;BMP280;68315;48.608;11.436;2023-04-24T00:22:32;96282.97;;;11.51
78917;BMP280;68315;48.608;11.436;2023-04-24T00:24:57;96278.22;;;11.52
78917;BMP280;68315;48.608;11.436;2023-04-24T00:27:23;96289.94;;;11.52
78917;BMP280;68315;48.608;11.436;2023-04-24T00:29:48;96292.13;;;11.54
78917;BMP280;68315;48.608;11.436;2023-04-24T00:32:17;96283.81;;;11.61
78917;BMP280;68315;48.608;11.436;2023-04-24T00:34:42;96288.22;;;11.64
78917;BMP280;68315;48.608;11.436;2023-04-24T00:37:08;96285.50;;;11.57
78917;BMP280;68315;48.608;11.436;2023-04-24T00:39:36;96284.59;;;11.54
78917;BMP280;68315;48.608;11.436;2023-04-24T00:42:04;96297.63;;;11.54
78917;BMP280;68315;48.608;11.436;2023-04-24T00:44:32;96296.75;;;11.51
78917;BMP280;68315;48.608;11.436;2023-04-24T00:46:58;96295.25;;;11.50
78917;BMP280;68315;48.608;11.436;2023-04-24T00:49:27;96291.06;;;11.49
78917;BMP280;68315;48.608;11.436;2023-04-24T00:51:52;96293.13;;;11.41
78917;BMP280;68315;48.608;11.436;2023-04-24T00:54:19;96289.41;;;11.46
78917;BMP280;68315;48.608;11.436;2023-04-24T00:56:44;96293.63;;;11.47
78917;BMP280;68315;48.608;11.436;2023-04-24T00:59:14;96288.84;;;11.48
78917;BMP280;68315;48.608;11.436;2023-04-24T01:01:44;96288.69;;;11.46
78917;BMP280;68315;48.608;11.436;2023-04-24T01:04:11;96279.16;;;11.39
78917;BMP280;68315;48.608;11.436;2023-04-24T01:06:39;96277.53;;;11.36
78917;BMP280;68315;48.608;11.436;2023-04-24T01:09:05;96279.03;;;11.37
78917;BMP280;68315;48.608;11.436;2023-04-24T01:11:37;96288.72;;;11.38
78917;BMP280;68315;48.608;11.436;2023-04-24T01:14:02;96278.06;;;11.42
78917;BMP280;68315;48.608;11.436;2023-04-24T01:16:30;96288.72;;;11.38
78917;BMP280;68315;48.608;11.436;2023-04-24T01:18:58;96277.91;;;11.40
78917;BMP280;68315;48.608;11.436;2023-04-24T01:21:26;96280.88;;;11.35
78917;BMP280;68315;48.608;11.436;2023-04-24T01:23:56;96279.75;;;11.30
78917;BMP280;68315;48.608;11.436;2023-04-24T01:26:25;96286.00;;;11.31
78917;BMP280;68315;48.608;11.436;2023-04-24T01:28:53;96278.88;;;11.28
78917;BMP280;68315;48.608;11.436;2023-04-24T01:31:18;96283.84;;;11.29
78917;BMP280;68315;48.608;11.436;2023-04-24T01:33:47;96275.41;;;11.27
78917;BMP280;68315;48.608;11.436;2023-04-24T01:36:33;96277.63;;;11.21
78917;BMP280;68315;48.608;11.436;2023-04-24T01:39:05;96277.44;;;11.19
78917;BMP280;68315;48.608;11.436;2023-04-24T01:41:46;96269.75;;;11.18
78917;BMP280;68315;48.608;11.436;2023-04-24T01:44:15;96267.75;;;11.18
78917;BMP280;68315;48.608;11.436;2023-04-24T01:46:47;96270.13;;;11.14
78917;BMP280;68315;48.608;11.436;2023-04-24T01:49:19;96258.56;;;11.16
78917;BMP280;68315;48.608;11.436;2023-04-24T01:51:45;96263.91;;;11.14
78917;BMP280;68315;48.608;11.436;2023-04-24T01:54:10;96266.81;;;11.16
78917;BMP280;68315;48.608;11.436;2023-04-24T01:56:41;96261.72;;;11.12
78917;BMP280;68315;48.608;11.436;2023-04-24T01:59:09;96261.94;;;11.07
78917;BMP280;68315;48.608;11.436;2023-04-24T02:01:44;96257.72;;;11.06
78917;BMP280;68315;48.608;11.436;2023-04-24T02:04:11;96253.69;;;11.07
78917;BMP280;68315;48.608;11.436;2023-04-24T02:06:37;96255.53;;;11.04
78917;BMP280;68315;48.608;11.436;2023-04-24T02:09:03;96250.56;;;11.03
78917;BMP280;68315;48.608;11.436;2023-04-24T02:11:28;96239.56;;;11.03
78917;BMP280;68315;48.608;11.436;2023-04-24T02:13:54;96245.63;;;11.01
78917;BMP280;68315;48.608;11.436;2023-04-24T02:16:22;96241.22;;;11.06
78917;BMP280;68315;48.608;11.436;2023-04-24T02:18:50;96233.16;;;11.00
78917;BMP280;68315;48.608;11.436;2023-04-24T02:21:21;96234.63;;;11.01
78917;BMP280;68315;48.608;11.436;2023-04-24T02:23:46;96248.75;;;10.98
78917;BMP280;68315;48.608;11.436;2023-04-24T02:26:12;96245.09;;;10.95
78917;BMP280;68315;48.608;11.436;2023-04-24T02:28:55;96238.53;;;10.90
78917;BMP280;68315;48.608;11.436;2023-04-24T02:31:23;96235.41;;;10.86
78917;BMP280;68315;48.608;11.436;2023-04-24T02:33:51;96231.94;;;10.86
78917;BMP280;68315;48.608;11.436;2023-04-24T02:36:19;96241.81;;;10.89
78917;BMP280;68315;48.608;11.436;2023-04-24T02:39:02;96235.78;;;10.90
78917;BMP280;68315;48.608;11.436;2023-04-24T02:41:30;96245.50;;;10.91
78917;BMP280;68315;48.608;11.436;2023-04-24T02:44:00;96243.66;;;10.86
78917;BMP280;68315;48.608;11.436;2023-04-24T02:46:26;96243.66;;;10.86
78917;BMP280;68315;48.608;11.436;2023-04-24T02:48:51;96250.63;;;10.80
78917;BMP280;68315;48.608;11.436;2023-04-24T02:51:17;96252.28;;;10.83
78917;BMP280;68315;48.608;11.436;2023-04-24T02:53:45;96241.13;;;10.81
78917;BMP280;68315;48.608;11.436;2023-04-24T02:56:24;96250.28;;;10.83
78917;BMP280;68315;48.608;11.436;2023-04-24T02:58:58;96255.44;;;10.79
78917;BMP280;68315;48.608;11.436;2023-04-24T03:01:28;96251.56;;;10.82
78917;BMP280;68315;48.608;11.436;2023-04-24T03:04:02;96254.47;;;10.77
78917;BMP280;68315;48.608;11.436;2023-04-24T03:06:28;96252.13;;;10.81
78917;BMP280;68315;48.608;11.436;2023-04-24T03:08:56;96259.25;;;10.84
78917;BMP280;68315;48.608;11.436;2023-04-24T03:11:21;96245.53;;;10.84
78917;BMP280;68315;48.608;11.436;2023-04-24T03:13:50;96254.47;;;10.77
78917;BMP280;68315;48.608;11.436;2023-04-24T03:16:15;96246.63;;;10.81
78917;BMP280;68315;48.608;11.436;2023-04-24T03:18:41;96251.16;;;10.86
78917;BMP280;68315;48.608;11.436;2023-04-24T03:21:06;96244.78;;;10.83
78917;BMP280;68315;48.608;11.436;2023-04-24T03:23:31;96255.81;;;10.76
78917;BMP280;68315;48.608;11.436;2023-04-24T03:25:57;96254.47;;;10.84
78917;BMP280;68315;48.608;11.436;2023-04-24T03:28:22;96258.69;;;10.78
78917;BMP280;68315;48.608;11.436;2023-04-24T03:30:48;96257.97;;;10.77
78917;BMP280;68315;48.608;11.436;2023-04-24T03:33:16;96247.19;;;10.79
78917;BMP280;68315;48.608;11.436;2023-04-24T03:35:44;96259.09;;;10.74
78917;BMP280;68315;48.608;11.436;2023-04-24T03:38:15;96254.34;;;10.75
78917;BMP280;68315;48.608;11.436;2023-04-24T03:40:43;96260.19;;;10.71
78917;BMP280;68315;48.608;11.436;2023-04-24T03:43:18;96256.91;;;10.73
78917;BMP280;68315;48.608;11.436;2023-04-24T03:45:57;96255.44;;;10.72
78917;BMP280;68315;48.608;11.436;2023-04-24T03:48:30;96262.22;;;10.71
78917;BMP280;68315;48.608;11.436;2023-04-24T03:51:08;96257.44;;;10.71
78917;BMP280;68315;48.608;11.436;2023-04-24T03:53:42;96264.22;;;10.63
78917;BMP280;68315;48.608;11.436;2023-04-24T03:56:08;96258.03;;;10.62
78917;BMP280;68315;48.608;11.436;2023-04-24T03:58:33;96251.78;;;10.62
78917;BMP280;68315;48.608;11.436;2023-04-24T04:01:06;96258.03;;;10.62
78917;BMP280;68315;48.608;11.436;2023-04-24T04:03:35;96256.53;;;10.61
78917;BMP280;68315;48.608;11.436;2023-04-24T04:06:01;96255.47;;;10.57
78917;BMP280;68315;48.608;11.436;2023-04-24T04:08:26;96255.09;;;10.60
78917;BMP280;68315;48.608;11.436;2023-04-24T04:11:01;96250.00;;;10.57
78917;BMP280;68315;48.608;11.436;2023-04-24T04:19:48;96236.03;;;10.70
78917;BMP280;68315;48.608;11.436;2023-04-24T04:22:16;96246.84;;;10.68
78917;BMP280;68315;48.608;11.436;2023-04-24T04:24:53;96247.75;;;10.63
78917;BMP280;68315;48.608;11.436;2023-04-24T04:27:21;96250.16;;;10.59
78917;BMP280;68315;48.608;11.436;2023-04-24T04:29:46;96249.59;;;10.60
78917;BMP280;68315;48.608;11.436;2023-04-24T04:32:12;96252.53;;;10.62
78917;BMP280;68315;48.608;11.436;2023-04-24T04:34:52;96249.41;;;10.66
78917;BMP280;68315;48.608;11.436;2023-04-24T04:37:30;96253.81;;;10.61
78917;BMP280;68315;48.608;11.436;2023-04-24T04:39:59;96256.41;;;10.59
78917;BMP280;68315;48.608;11.436;2023-04-24T04:42:26;96262.22;;;10.71
78917;BMP280;68315;48.608;11.436;2023-04-24T04:44:52;96260.91;;;10.72
78917;BMP280;68315;48.608;11.436;2023-04-24T04:47:20;96266.25;;;10.70
78917;BMP280;68315;48.608;11.436;2023-04-24T04:49:49;96273.72;;;10.77
78917;BMP280;68315;48.608;11.436;2023-04-24T04:52:16;96275.75;;;10.69
78917;BMP280;68315;48.608;11.436;2023-04-24T04:54:52;96282.94;;;10.64
78917;BMP280;68315;48.608;11.436;2023-04-24T04:57:26;96271.00;;;10.69
78917;BMP280;68315;48.608;11.436;2023-04-24T04:59:56;96265.88;;;10.66
78917;BMP280;68315;48.608;11.436;2023-04-24T05:02:29;96272.13;;;10.66
78917;BMP280;68315;48.608;11.436;2023-04-24T05:05:19;96273.00;;;10.69
78917;BMP280;68315;48.608;11.436;2023-04-24T05:07:53;96281.09;;;10.67
78917;BMP280;68315;48.608;11.436;2023-04-24T05:10:21;96277.97;;;10.70
78917;BMP280;68315;48.608;11.436;2023-04-24T05:12:53;96284.19;;;10.71
78917;BMP280;68315;48.608;11.436;2023-04-24T05:15:18;96279.97;;;10.70
78917;BMP280;68315;48.608;11.436;2023-04-24T05:17:43;96292.97;;;10.69
78917;BMP280;68315;48.608;11.436;2023-04-24T05:20:09;96306.53;;;10.75
78917;BMP280;68315;48.608;11.436;2023-04-24T05:22:34;96292.78;;;10.82
78917;BMP280;68315;48.608;11.436;2023-04-24T05:25:03;96296.44;;;10.85
78917;BMP280;68315;48.608;11.436;2023-04-24T05:27:52;96298.66;;;10.79
78917;BMP280;68315;48.608;11.436;2023-04-24T05:30:23;96288.75;;;10.83
78917;BMP280;68315;48.608;11.436;2023-04-24T05:32:57;96285.81;;;10.81
78917;BMP280;68315;48.608;11.436;2023-04-24T05:35:23;96290.94;;;10.85
78917;BMP280;68315;48.608;11.436;2023-04-24T05:37:53;96292.59;;;10.80
78917;BMP280;68315;48.608;11.436;2023-04-24T05:40:19;96290.94;;;10.85
78917;BMP280;68315;48.608;11.436;2023-04-24T05:42:44;96296.78;;;10.89
78917;BMP280;68315;48.608;11.436;2023-04-24T05:45:10;96299.72;;;10.91
78917;BMP280;68315;48.608;11.436;2023-04-24T05:47:54;96300.63;;;10.93
78917;BMP280;68315;48.608;11.436;2023-04-24T05:51:02;96300.03;;;11.03
78917;BMP280;68315;48.608;11.436;2023-04-24T05:54:13;96290.84;;;11.15
78917;BMP280;68315;48.608;11.436;2023-04-24T05:56:39;96286.63;;;11.22
78917;BMP280;68315;48.608;11.436;2023-04-24T05:59:08;96304.34;;;11.28
78917;BMP280;68315;48.608;11.436;2023-04-24T06:01:40;96308.00;;;11.31
78917;BMP280;68315;48.608;11.436;2023-04-24T06:04:06;96312.59;;;11.28
78917;BMP280;68315;48.608;11.436;2023-04-24T06:06:32;96313.50;;;11.31
78917;BMP280;68315;48.608;11.436;2023-04-24T06:08:57;96299.72;;;11.38
78917;BMP280;68315;48.608;11.436;2023-04-24T06:11:24;96320.81;;;11.43
78917;BMP280;68315;48.608;11.436;2023-04-24T06:14:04;96310.31;;;11.49
78917;BMP280;68315;48.608;11.436;2023-04-24T06:16:29;96315.59;;;11.55
78917;BMP280;68315;48.608;11.436;2023-04-24T06:18:57;96318.16;;;11.53
78917;BMP280;68315;48.608;11.436;2023-04-24T06:21:25;96318.75;;;11.51
78917;BMP280;68315;48.608;11.436;2023-04-24T06:23:59;96317.84;;;11.49
78917;BMP280;68315;48.608;11.436;2023-04-24T06:26:33;96320.91;;;11.53
78917;BMP280;68315;48.608;11.436;2023-04-24T06:29:12;96325.88;;;11.54
78917;BMP280;68315;48.608;11.436;2023-04-24T06:31:40;96316.50;;;11.57
78917;BMP280;68315;48.608;11.436;2023-04-24T06:34:08;96321.63;;;11.53
78917;BMP280;68315;48.608;11.436;2023-04-24T06:36:39;96319.44;;;11.59
78917;BMP280;68315;48.608;11.436;2023-04-24T06:39:11;96313.38;;;11.61
78917;BMP280;68315;48.608;11.436;2023-04-24T06:41:37;96310.97;;;11.65
78917;BMP280;68315;48.608;11.436;2023-04-24T06:44:05;96312.97;;;11.64
78917;BMP280;68315;48.608;11.436;2023-04-24T06:46:30;96316.25;;;11.70
78917;BMP280;68315;48.608;11.436;2023-04-24T06:49:01;96326.88;;;11.74
78917;BMP280;68315;48.608;11.436;2023-04-24T06:51:27;96326.47;;;11.77
78917;BMP280;68315;48.608;11.436;2023-04-24T06:53:55;96319.44;;;11.84
78917;BMP280;68315;48.608;11.436;2023-04-24T06:56:21;96322.19;;;11.92
78917;BMP280;68315;48.608;11.436;2023-04-24T06:58:47;96321.97;;;11.90
78917;BMP280;68315;48.608;11.436;2023-04-24T07:01:12;96322.34;;;11.94
78917;BMP280;68315;48.608;11.436;2023-04-24T07:03:38;96320.88;;;11.93
78917;BMP280;68315;48.608;11.436;2023-04-24T07:06:04;96324.31;;;12.01
78917;BMP280;68315;48.608;11.436;2023-04-24T07:08:33;96332.03;;;12.02
78917;BMP280;68315;48.608;11.436;2023-04-24T07:10:59;96320.84;;;12.00
78917;BMP280;68315;48.608;11.436;2023-04-24T07:13:25;96327.25;;;12.03
78917;BMP280;68315;48.608;11.436;2023-04-24T07:15:51;96326.81;;;12.06
78917;BMP280;68315;48.608;11.436;2023-04-24T07:18:20;96329.22;;;12.10
78917;BMP280;68315;48.608;11.436;2023-04-24T07:20:45;96343.91;;;12.05
78917;BMP280;68315;48.608;11.436;2023-04-24T07:23:11;96346.72;;;11.97
78917;BMP280;68315;48.608;11.436;2023-04-24T07:25:39;96354.25;;;11.97
78917;BMP280;68315;48.608;11.436;2023-04-24T07:28:04;96347.28;;;11.96
78917;BMP280;68315;48.608;11.436;2023-04-24T07:30:30;96359.41;;;11.93
78917;BMP280;68315;48.608;11.436;2023-04-24T07:32:58;96355.22;;;11.92
78917;BMP280;68315;48.608;11.436;2023-04-24T07:35:23;96357.63;;;11.88
78917;BMP280;68315;48.608;11.436;2023-04-24T07:37:50;96362.22;;;11.85
78917;BMP280;68315;48.608;11.436;2023-04-24T07:40:15;96357.06;;;11.89
78917;BMP280;68315;48.608;11.436;2023-04-24T07:42:41;96366.97;;;11.85
78917;BMP280;68315;48.608;11.436;2023-04-24T07:45:07;96360.03;;;11.84
78917;BMP280;68315;48.608;11.436;2023-04-24T07:47:32;96358.72;;;11.85
78917;BMP280;68315;48.608;11.436;2023-04-24T07:49:58;96375.06;;;11.83
78917;BMP280;68315;48.608;11.436;2023-04-24T07:52:24;96389.41;;;11.81
78917;BMP280;68315;48.608;11.436;2023-04-24T07:54:50;96410.03;;;11.65
78917;BMP280;68315;48.608;11.436;2023-04-24T07:57:16;96432.88;;;11.35
78917;BMP280;68315;48.608;11.436;2023-04-24T07:59:41;96419.88;;;11.06
78917;BMP280;68315;48.608;11.436;2023-04-24T08:02:07;96432.41;;;10.76
78917;BMP280;68315;48.608;11.436;2023-04-24T08:04:33;96441.31;;;10.54
78917;BMP280;68315;48.608;11.436;2023-04-24T08:06:58;96457.22;;;10.33
78917;BMP280;68315;48.608;11.436;2023-04-24T08:09:23;96439.97;;;10.10
78917;BMP280;68315;48.608;11.436;2023-04-24T08:11:49;96445.78;;;9.99
78917;BMP280;68315;48.608;11.436;2023-04-24T08:14:14;96440.78;;;9.82
78917;BMP280;68315;48.608;11.436;2023-04-24T08:16:40;96451.13;;;9.69
78917;BMP280;68315;48.608;11.436;2023-04-24T08:19:06;96449.44;;;9.58
78917;BMP280;68315;48.608;11.436;2023-04-24T08:21:31;96450.72;;;9.57
78917;BMP280;68315;48.608;11.436;2023-04-24T08:23:57;96443.56;;;9.54
78917;BMP280;68315;48.608;11.436;2023-04-24T08:26:22;96425.47;;;9.59
78917;BMP280;68315;48.608;11.436;2023-04-24T08:28:47;96438.84;;;9.62
78917;BMP280;68315;48.608;11.436;2023-04-24T08:31:13;96440.75;;;9.75
78917;BMP280;68315;48.608;11.436;2023-04-24T08:33:38;96437.09;;;9.80
78917;BMP280;68315;48.608;11.436;2023-04-24T08:36:06;96449.25;;;9.92
78917;BMP280;68315;48.608;11.436;2023-04-24T08:38:38;96439.78;;;10.16
78917;BMP280;68315;48.608;11.436;2023-04-24T08:41:08;96434.00;;;10.34
78917;BMP280;68315;48.608;11.436;2023-04-24T08:43:40;96432.56;;;10.71
78917;BMP280;68315;48.608;11.436;2023-04-24T08:46:15;96439.84;;;11.14
78917;BMP280;68315;48.608;11.436;2023-04-24T08:48:45;96439.94;;;11.61
78917;BMP280;68315;48.608;11.436;2023-04-24T08:51:29;96444.75;;;11.93
78917;BMP280;68315;48.608;11.436;2023-04-24T08:57:52;96436.44;;;12.32
78917;BMP280;68315;48.608;11.436;2023-04-24T09:00:39;96432.19;;;12.39
78917;BMP280;68315;48.608;11.436;2023-04-24T09:03:08;96429.94;;;12.45
78917;BMP280;68315;48.608;11.436;2023-04-24T09:05:37;96433.38;;;12.53
78917;BMP280;68315;48.608;11.436;2023-04-24T09:08:11;96427.81;;;12.60
78917;BMP280;68315;48.608;11.436;2023-04-24T09:10:39;96421.75;;;12.62
78917;BMP280;68315;48.608;11.436;2023-04-24T09:13:04;96425.91;;;12.71
78917;BMP280;68315;48.608;11.436;2023-04-24T09:15:42;96433.59;;;12.72
78917;BMP280;68315;48.608;11.436;2023-04-24T09:18:07;96442.59;;;12.73
78917;BMP280;68315;48.608;11.436;2023-04-24T09:20:33;96427.28;;;12.79
78917;BMP280;68315;48.608;11.436;2023-04-24T09:23:04;96425.84;;;12.78
78917;BMP280;68315;48.608;11.436;2023-04-24T09:25:35;96432.53;;;12.68
78917;BMP280;68315;48.608;11.436;2023-04-24T09:28:04;96435.34;;;12.60
78917;BMP280;68315;48.608;11.436;2023-04-24T09:30:31;96439.94;;;12.65
78917;BMP280;68315;48.608;11.436;2023-04-24T09:33:10;96440.41;;;12.71
78917;BMP280;68315;48.608;11.436;2023-04-24T09:35:36;96454.66;;;12.85
78917;BMP280;68315;48.608;11.436;2023-04-24T09:38:01;96454.09;;;13.03
78917;BMP280;68315;48.608;11.436;2023-04-24T09:40:26;96459.75;;;13.05
78917;BMP280;68315;48.608;11.436;2023-04-24T09:42:56;96466.00;;;12.89
78917;BMP280;68315;48.608;11.436;2023-04-24T09:45:22;96458.78;;;12.69
78917;BMP280;68315;48.608;11.436;2023-04-24T09:47:51;96462.13;;;12.67
78917;BMP280;68315;48.608;11.436;2023-04-24T09:50:18;96453.75;;;12.57
78917;BMP280;68315;48.608;11.436;2023-04-24T09:52:56;96447.66;;;12.59
78917;BMP280;68315;48.608;11.436;2023-04-24T09:55:21;96440.75;;;12.75
78917;BMP280;68315;48.608;11.436;2023-04-24T09:57:55;96442.72;;;12.99
78917;BMP280;68315;48.608;11.436;2023-04-24T10:00:25;96443.81;;;13.38
78917;BMP280;68315;48.608;11.436;2023-04-24T10:03:02;96433.66;;;13.75
78917;BMP280;68315;48.608;11.436;2023-04-24T10:05:32;96435.56;;;13.82
78917;BMP280;68315;48.608;11.436;2023-04-24T10:08:08;96433.16;;;13.86
78917;BMP280;68315;48.608;11.436;2023-04-24T10:10:43;96419.50;;;13.71
78917;BMP280;68315;48.608;11.436;2023-04-24T10:13:10;96417.44;;;13.44
78917;BMP280;68315;48.608;11.436;2023-04-24T10:15:37;96412.63;;;13.62
78917;BMP280;68315;48.608;11.436;2023-04-24T10:18:04;96414.72;;;13.71
78917;BMP280;68315;48.608;11.436;2023-04-24T10:20:31;96423.19;;;13.73
78917;BMP280;68315;48.608;11.436;2023-04-24T10:22:58;96418.97;;;13.72
78917;BMP280;68315;48.608;11.436;2023-04-24T10:25:25;96415.50;;;13.81
78917;BMP280;68315;48.608;11.436;2023-04-24T10:27:52;96415.59;;;13.91
78917;BMP280;68315;48.608;11.436;2023-04-24T10:30:19;96431.84;;;13.87
78917;BMP280;68315;48.608;11.436;2023-04-24T10:32:45;96433.81;;;13.77
78917;BMP280;68315;48.608;11.436;2023-04-24T10:35:15;96452.13;;;13.55
78917;BMP280;68315;48.608;11.436;2023-04-24T10:37:48;96457.13;;;13.32
78917;BMP280;68315;48.608;11.436;2023-04-24T10:40:19;96462.31;;;13.11
78917;BMP280;68315;48.608;11.436;2023-04-24T10:42:51;96479.72;;;12.72
78917;BMP280;68315;48.608;11.436;2023-04-24T10:45:22;96474.72;;;12.53
78917;BMP280;68315;48.608;11.436;2023-04-24T10:47:58;96477.53;;;12.38
78917;BMP280;68315;48.608;11.436;2023-04-24T10:50:27;96470.09;;;12.31
78917;BMP280;68315;48.608;11.436;2023-04-24T10:52:52;96467.63;;;12.42
78917;BMP280;68315;48.608;11.436;2023-04-24T10:58:07;96456.78;;;12.69
78917;BMP280;68315;48.608;11.436;2023-04-24T11:00:36;96468.88;;;12.74
78917;BMP280;68315;48.608;11.436;2023-04-24T11:03:04;96478.56;;;12.99
78917;BMP280;68315;48.608;11.436;2023-04-24T11:05:50;96473.91;;;13.09
78917;BMP280;68315;48.608;11.436;2023-04-24T11:08:23;96469.81;;;13.35
78917;BMP280;68315;48.608;11.436;2023-04-24T11:11:09;96472.38;;;13.67
78917;BMP280;68315;48.608;11.436;2023-04-24T11:16:52;96462.41;;;13.37
78917;BMP280;68315;48.608;11.436;2023-04-24T11:19:25;96473.78;;;13.00
78917;BMP280;68315;48.608;11.436;2023-04-24T11:21:58;96474.41;;;12.74
78917;BMP280;68315;48.608;11.436;2023-04-24T11:24:31;96471.66;;;12.66
78917;BMP280;68315;48.608;11.436;2023-04-24T11:27:06;96473.69;;;12.65
78917;BMP280;68315;48.608;11.436;2023-04-24T11:34:41;96467.25;;;12.71
78917;BMP280;68315;48.608;11.436;2023-04-24T11:37:06;96462.22;;;12.77
78917;BMP280;68315;48.608;11.436;2023-04-24T11:39:36;96468.56;;;12.87
78917;BMP280;68315;48.608;11.436;2023-04-24T11:42:03;96463.41;;;13.08
78917;BMP280;68315;48.608;11.436;2023-04-24T11:44:29;96457.78;;;13.40
78917;BMP280;68315;48.608;11.436;2023-04-24T11:46:55;96451.38;;;13.72
78917;BMP280;68315;48.608;11.436;2023-04-24T11:49:21;96460.09;;;14.21
78917;BMP280;68315;48.608;11.436;2023-04-24T11:51:46;96460.97;;;14.60
78917;BMP280;68315;48.608;11.436;2023-04-24T11:54:11;96460.22;;;15.05
78917;BMP280;68315;48.608;11.436;2023-04-24T11:56:37;96459.84;;;15.18
78917;BMP280;68315;48.608;11.436;2023-04-24T11:59:04;96449.78;;;15.32
78917;BMP280;68315;48.608;11.436;2023-04-24T12:01:29;96451.66;;;15.39
78917;BMP280;68315;48.608;11.436;2023-04-24T12:03:59;96452.69;;;15.54
78917;BMP280;68315;48.608;11.436;2023-04-24T12:06:25;96453.56;;;15.47
78917;BMP280;68315;48.608;11.436;2023-04-24T12:08:52;96460.25;;;15.53
78917;BMP280;68315;48.608;11.436;2023-04-24T12:11:17;96453.09;;;15.69
78917;BMP280;68315;48.608;11.436;2023-04-24T12:13:45;96453.91;;;16.00
78917;BMP280;68315;48.608;11.436;2023-04-24T12:16:11;96450.09;;;16.15
78917;BMP280;68315;48.608;11.436;2023-04-24T12:18:42;96439.63;;;16.04
78917;BMP280;68315;48.608;11.436;2023-04-24T12:21:21;96437.63;;;15.85
78917;BMP280;68315;48.608;11.436;2023-04-24T12:23:48;96447.66;;;16.00
78917;BMP280;68315;48.608;11.436;2023-04-24T12:26:17;96445.47;;;16.08
78917;BMP280;68315;48.608;11.436;2023-04-24T12:28:46;96450.75;;;15.94
78917;BMP280;68315;48.608;11.436;2023-04-24T12:31:12;96453.41;;;15.64
78917;BMP280;68315;48.608;11.436;2023-04-24T12:33:37;96462.44;;;15.55
78917;BMP280;68315;48.608;11.436;2023-04-24T12:36:03;96453.47;;;16.04
78917;BMP280;68315;48.608;11.436;2023-04-24T12:38:30;96456.19;;;16.23
78917;BMP280;68315;48.608;11.436;2023-04-24T12:41:03;96460.78;;;16.39
78917;BMP280;68315;48.608;11.436;2023-04-24T12:43:29;96461.16;;;16.24
78917;BMP280;68315;48.608;11.436;2023-04-24T12:45:55;96466.75;;;16.05
78917;BMP280;68315;48.608;11.436;2023-04-24T12:48:20;96479.28;;;16.16
78917;BMP280;68315;48.608;11.436;2023-04-24T12:50:47;96465.66;;;16.60
78917;BMP280;68315;48.608;11.436;2023-04-24T12:53:12;96467.88;;;16.62
78917;BMP280;68315;48.608;11.436;2023-04-24T12:55:38;96476.13;;;16.40
78917;BMP280;68315;48.608;11.436;2023-04-24T12:58:03;96473.19;;;15.98
78917;BMP280;68315;48.608;11.436;2023-04-24T13:00:29;96481.25;;;15.47
78917;BMP280;68315;48.608;11.436;2023-04-24T13:02:54;96480.66;;;15.38
78917;BMP280;68315;48.608;11.436;2023-04-24T13:05:20;96482.25;;;15.41
78917;BMP280;68315;48.608;11.436;2023-04-24T13:07:45;96478.47;;;15.66
78917;BMP280;68315;48.608;11.436;2023-04-24T13:10:10;96472.53;;;16.28
78917;BMP280;68315;48.608;11.436;2023-04-24T13:12:36;96474.31;;;16.55
78917;BMP280;68315;48.608;11.436;2023-04-24T13:15:02;96491.38;;;16.61
78917;BMP280;68315;48.608;11.436;2023-04-24T13:17:28;96471.75;;;16.37
78917;BMP280;68315;48.608;11.436;2023-04-24T13:19:54;96494.66;;;15.79
78917;BMP280;68315;48.608;11.436;2023-04-24T13:22:20;96488.97;;;15.29
78917;BMP280;68315;48.608;11.436;2023-04-24T13:24:46;96489.47;;;14.99
78917;BMP280;68315;48.608;11.436;2023-04-24T13:27:13;96497.00;;;14.79
78917;BMP280;68315;48.608;11.436;2023-04-24T13:29:38;96501.91;;;14.62
78917;BMP280;68315;48.608;11.436;2023-04-24T13:32:04;96493.56;;;14.52
78917;BMP280;68315;48.608;11.436;2023-04-24T13:34:29;96504.31;;;14.48
78917;BMP280;68315;48.608;11.436;2023-04-24T13:36:56;96503.81;;;15.14
78917;BMP280;68315;48.608;11.436;2023-04-24T13:39:23;96489.25;;;15.62
78917;BMP280;68315;48.608;11.436;2023-04-24T13:41:49;96492.88;;;15.93
78917;BMP280;68315;48.608;11.436;2023-04-24T13:44:16;96488.22;;;15.95
78917;BMP280;68315;48.608;11.436;2023-04-24T13:46:42;96492.75;;;15.91
78917;BMP280;68315;48.608;11.436;2023-04-24T13:49:12;96492.03;;;15.81
78917;BMP280;68315;48.608;11.436;2023-04-24T13:51:38;96491.44;;;15.73
78917;BMP280;68315;48.608;11.436;2023-04-24T13:54:04;96488.09;;;15.65
78917;BMP280;68315;48.608;11.436;2023-04-24T13:56:29;96499.47;;;15.59
78917;BMP280;68315;48.608;11.436;2023-04-24T13:58:54;96493.06;;;15.37
78917;BMP280;68315;48.608;11.436;2023-04-24T14:01:20;96489.81;;;15.22
78917;BMP280;68315;48.608;11.436;2023-04-24T14:03:50;96482.69;;;15.09
78917;BMP280;68315;48.608;11.436;2023-04-24T14:06:16;96496.66;;;15.11
78917;BMP280;68315;48.608;11.436;2023-04-24T14:08:41;96504.25;;;15.30
78917;BMP280;68315;48.608;11.436;2023-04-24T14:11:07;96507.03;;;15.49
78917;BMP280;68315;48.608;11.436;2023-04-24T14:13:32;96511.25;;;15.60
78917;BMP280;68315;48.608;11.436;2023-04-24T14:15:58;96505.31;;;15.63
78917;BMP280;68315;48.608;11.436;2023-04-24T14:18:23;96505.44;;;15.56
78917;BMP280;68315;48.608;11.436;2023-04-24T14:20:48;96504.41;;;15.61
78917;BMP280;68315;48.608;11.436;2023-04-24T14:23:14;96512.44;;;15.57
78917;BMP280;68315;48.608;11.436;2023-04-24T14:25:40;96513.28;;;15.50